sensor_id;sensor_type;location;lat;lon;timestamp;P1;durP1;ratioP1;P2;durP2;ratioP2
29906;SDS011;16776;50.958;10.994;2023-03-14T00:00:59;0.20;;;0.20;;
29906;SDS011;16776;50.958;10.994;2023-03-14T00:03:27;0.20;;;0.20;;
29906;SDS011;16776;50.958;10.994;2023-03-14T00:05:54;0.30;;;0.30;;
29906;SDS011;16776;50.958;10.994;2023-03-14T00:08:21;0.47;;;0.20;;
29906;SDS011;16776;50.958;10.994;2023-03-14T00:10:51;0.40;;;0.40;;
29906;SDS011;16776;50.958;10.994;2023-03-14T00:13:17;0.20;;;0.20;;
29906;SDS011;16776;50.958;10.994;2023-03-14T00:15:44;0.20;;;0.20;;
29906;SDS011;16776;50.958;10.994;2023-03-14T00:18:10;0.30;;;0.30;;
29906;SDS011;16776;50.958;10.994;2023-03-14T00:20:37;0.40;;;0.32;;
29906;SDS011;16776;50.958;10.994;2023-03-14T00:23:03;0.20;;;0.20;;
29906;SDS011;16776;50.958;10.994;2023-03-14T00:25:30;0.80;;;0.63;;
29906;SDS011;16776;50.958;10.994;2023-03-14T00:27:58;0.52;;;0.20;;
29906;SDS011;16776;50.958;10.994;2023-03-14T00:30:24;0.30;;;0.15;;
29906;SDS011;16776;50.958;10.994;2023-03-14T00:32:51;0.20;;;0.20;;
29906;SDS011;16776;50.958;10.994;2023-03-14T00:35:17;1.50;;;0.40;;
29906;SDS011;16776;50.958;10.994;2023-03-14T00:37:44;0.13;;;0.13;;
29906;SDS011;16776;50.958;10.994;2023-03-14T00:40:11;0.30;;;0.17;;
29906;SDS011;16776;50.958;10.994;2023-03-14T00:42:37;0.10;;;0.10;;
29906;SDS011;16776;50.958;10.994;2023-03-14T00:45:06;0.15;;;0.15;;
29906;SDS011;16776;50.958;10.994;2023-03-14T00:47:33;0.30;;;0.20;;
29906;SDS011;16776;50.958;10.994;2023-03-14T00:50:00;0.70;;;0.30;;
29906;SDS011;16776;50.958;10.994;2023-03-14T00:52:27;0.65;;;0.40;;
29906;SDS011;16776;50.958;10.994;2023-03-14T00:54:53;0.65;;;0.35;;
29906;SDS011;16776;50.958;10.994;2023-03-14T00:57:20;0.22;;;0.20;;
29906;SDS011;16776;50.958;10.994;2023-03-14T00:59:47;1.48;;;0.40;;
29906;SDS011;16776;50.958;10.994;2023-03-14T01:02:14;0.20;;;0.20;;
29906;SDS011;16776;50.958;10.994;2023-03-14T01:04:41;0.30;;;0.28;;
29906;SDS011;16776;50.958;10.994;2023-03-14T01:07:13;0.20;;;0.20;;
29906;SDS011;16776;50.958;10.994;2023-03-14T01:09:39;0.50;;;0.20;;
29906;SDS011;16776;50.958;10.994;2023-03-14T01:12:06;0.20;;;0.20;;
29906;SDS011;16776;50.958;10.994;2023-03-14T01:14:33;0.30;;;0.30;;
29906;SDS011;16776;50.958;10.994;2023-03-14T01:17:01;0.17;;;0.17;;
29906;SDS011;16776;50.958;10.994;2023-03-14T01:19:29;0.20;;;0.20;;
29906;SDS011;16776;50.958;10.994;2023-03-14T01:21:55;0.20;;;0.17;;
29906;SDS011;16776;50.958;10.994;2023-03-14T01:24:22;0.40;;;0.40;;
29906;SDS011;16776;50.958;10.994;2023-03-14T01:26:48;0.43;;;0.20;;
29906;SDS011;16776;50.958;10.994;2023-03-14T01:29:15;0.30;;;0.20;;
29906;SDS011;16776;50.958;10.994;2023-03-14T01:31:41;0.20;;;0.20;;
29906;SDS011;16776;50.958;10.994;2023-03-14T01:34:08;0.38;;;0.30;;
29906;SDS011;16776;50.958;10.994;2023-03-14T01:36:36;0.20;;;0.20;;
29906;SDS011;16776;50.958;10.994;2023-03-14T01:39:02;0.25;;;0.15;;
29906;SDS011;16776;50.958;10.994;2023-03-14T01:41:31;0.20;;;0.20;;
29906;SDS011;16776;50.958;10.994;2023-03-14T01:43:58;0.40;;;0.20;;
29906;SDS011;16776;50.958;10.994;2023-03-14T01:46:25;0.20;;;0.10;;
29906;SDS011;16776;50.958;10.994;2023-03-14T01:49:01;0.20;;;0.20;;
29906;SDS011;16776;50.958;10.994;2023-03-14T01:51:38;0.40;;;0.20;;
29906;SDS011;16776;50.958;10.994;2023-03-14T01:54:12;0.40;;;0.20;;
29906;SDS011;16776;50.958;10.994;2023-03-14T01:56:42;0.28;;;0.20;;
29906;SDS011;16776;50.958;10.994;2023-03-14T01:59:12;0.30;;;0.30;;
29906;SDS011;16776;50.958;10.994;2023-03-14T02:01:39;0.28;;;0.20;;
29906;SDS011;16776;50.958;10.994;2023-03-14T02:04:09;0.30;;;0.20;;
29906;SDS011;16776;50.958;10.994;2023-03-14T02:06:42;0.40;;;0.35;;
29906;SDS011;16776;50.958;10.994;2023-03-14T02:09:14;0.63;;;0.30;;
29906;SDS011;16776;50.958;10.994;2023-03-14T02:11:42;1.85;;;0.30;;
29906;SDS011;16776;50.958;10.994;2023-03-14T02:14:14;0.60;;;0.32;;
29906;SDS011;16776;50.958;10.994;2023-03-14T02:16:49;0.30;;;0.25;;
29906;SDS011;16776;50.958;10.994;2023-03-14T02:19:17;0.75;;;0.30;;
29906;SDS011;16776;50.958;10.994;2023-03-14T02:21:55;2.15;;;0.40;;
29906;SDS011;16776;50.958;10.994;2023-03-14T02:24:27;1.20;;;0.40;;
29906;SDS011;16776;50.958;10.994;2023-03-14T02:27:05;0.70;;;0.30;;
29906;SDS011;16776;50.958;10.994;2023-03-14T02:29:33;0.95;;;0.55;;
29906;SDS011;16776;50.958;10.994;2023-03-14T02:32:03;0.57;;;0.50;;
29906;SDS011;16776;50.958;10.994;2023-03-14T02:34:31;1.45;;;0.35;;
29906;SDS011;16776;50.958;10.994;2023-03-14T02:36:58;2.05;;;0.57;;
29906;SDS011;16776;50.958;10.994;2023-03-14T02:39:27;1.58;;;0.50;;
29906;SDS011;16776;50.958;10.994;2023-03-14T02:41:59;1.00;;;0.80;;
29906;SDS011;16776;50.958;10.994;2023-03-14T02:44:27;2.65;;;0.70;;
29906;SDS011;16776;50.958;10.994;2023-03-14T02:46:53;1.50;;;0.38;;
29906;SDS011;16776;50.958;10.994;2023-03-14T02:49:20;0.85;;;0.40;;
29906;SDS011;16776;50.958;10.994;2023-03-14T02:51:46;0.68;;;0.35;;
29906;SDS011;16776;50.958;10.994;2023-03-14T02:54:14;3.13;;;0.82;;
29906;SDS011;16776;50.958;10.994;2023-03-14T02:56:41;1.30;;;0.40;;
29906;SDS011;16776;50.958;10.994;2023-03-14T02:59:08;0.90;;;0.40;;
29906;SDS011;16776;50.958;10.994;2023-03-14T03:01:36;0.32;;;0.32;;
29906;SDS011;16776;50.958;10.994;2023-03-14T03:04:02;0.77;;;0.30;;
29906;SDS011;16776;50.958;10.994;2023-03-14T03:06:29;2.35;;;0.60;;
29906;SDS011;16776;50.958;10.994;2023-03-14T03:08:56;2.05;;;0.45;;
29906;SDS011;16776;50.958;10.994;2023-03-14T03:11:23;0.47;;;0.30;;
29906;SDS011;16776;50.958;10.994;2023-03-14T03:13:52;5.28;;;0.98;;
29906;SDS011;16776;50.958;10.994;2023-03-14T03:16:19;0.50;;;0.50;;
29906;SDS011;16776;50.958;10.994;2023-03-14T03:18:47;1.65;;;0.50;;
29906;SDS011;16776;50.958;10.994;2023-03-14T03:21:13;1.77;;;0.50;;
29906;SDS011;16776;50.958;10.994;2023-03-14T03:23:40;1.75;;;0.68;;
29906;SDS011;16776;50.958;10.994;2023-03-14T03:26:08;2.15;;;0.70;;
29906;SDS011;16776;50.958;10.994;2023-03-14T03:28:37;3.38;;;1.02;;
29906;SDS011;16776;50.958;10.994;2023-03-14T03:31:07;3.33;;;0.30;;
29906;SDS011;16776;50.958;10.994;2023-03-14T03:33:35;1.98;;;0.40;;
29906;SDS011;16776;50.958;10.994;2023-03-14T03:36:04;3.10;;;0.70;;
29906;SDS011;16776;50.958;10.994;2023-03-14T03:38:31;4.75;;;0.52;;
29906;SDS011;16776;50.958;10.994;2023-03-14T03:40:57;2.65;;;0.43;;
29906;SDS011;16776;50.958;10.994;2023-03-14T03:43:24;3.47;;;0.65;;
29906;SDS011;16776;50.958;10.994;2023-03-14T03:45:50;3.65;;;0.93;;
29906;SDS011;16776;50.958;10.994;2023-03-14T03:48:17;4.13;;;0.57;;
29906;SDS011;16776;50.958;10.994;2023-03-14T03:50:44;0.98;;;0.50;;
29906;SDS011;16776;50.958;10.994;2023-03-14T03:53:12;1.88;;;0.60;;
29906;SDS011;16776;50.958;10.994;2023-03-14T03:55:40;2.03;;;0.63;;
29906;SDS011;16776;50.958;10.994;2023-03-14T03:58:07;1.58;;;0.50;;
29906;SDS011;16776;50.958;10.994;2023-03-14T04:00:33;2.05;;;0.63;;
29906;SDS011;16776;50.958;10.994;2023-03-14T04:03:00;5.25;;;0.65;;
29906;SDS011;16776;50.958;10.994;2023-03-14T04:05:27;1.25;;;0.47;;
29906;SDS011;16776;50.958;10.994;2023-03-14T04:07:53;2.22;;;0.60;;
29906;SDS011;16776;50.958;10.994;2023-03-14T04:10:21;2.30;;;0.82;;
29906;SDS011;16776;50.958;10.994;2023-03-14T04:12:48;1.35;;;0.50;;
29906;SDS011;16776;50.958;10.994;2023-03-14T04:15:14;1.25;;;0.40;;
29906;SDS011;16776;50.958;10.994;2023-03-14T04:17:41;2.30;;;0.80;;
29906;SDS011;16776;50.958;10.994;2023-03-14T04:20:07;2.03;;;0.45;;
29906;SDS011;16776;50.958;10.994;2023-03-14T04:22:36;0.68;;;0.32;;
29906;SDS011;16776;50.958;10.994;2023-03-14T04:25:03;1.73;;;0.63;;
29906;SDS011;16776;50.958;10.994;2023-03-14T04:27:31;1.23;;;0.55;;
29906;SDS011;16776;50.958;10.994;2023-03-14T04:29:58;0.95;;;0.30;;
29906;SDS011;16776;50.958;10.994;2023-03-14T04:32:25;1.48;;;0.50;;
29906;SDS011;16776;50.958;10.994;2023-03-14T04:34:51;1.42;;;0.35;;
29906;SDS011;16776;50.958;10.994;2023-03-14T04:37:18;1.38;;;0.30;;
29906;SDS011;16776;50.958;10.994;2023-03-14T04:39:44;1.13;;;0.40;;
29906;SDS011;16776;50.958;10.994;2023-03-14T04:42:11;1.67;;;0.52;;
29906;SDS011;16776;50.958;10.994;2023-03-14T04:44:41;1.55;;;0.52;;
29906;SDS011;16776;50.958;10.994;2023-03-14T04:47:08;0.60;;;0.40;;
29906;SDS011;16776;50.958;10.994;2023-03-14T04:49:35;0.73;;;0.20;;
29906;SDS011;16776;50.958;10.994;2023-03-14T04:52:01;1.58;;;0.32;;
29906;SDS011;16776;50.958;10.994;2023-03-14T04:54:28;0.50;;;0.30;;
29906;SDS011;16776;50.958;10.994;2023-03-14T04:56:55;0.60;;;0.40;;
29906;SDS011;16776;50.958;10.994;2023-03-14T04:59:21;2.10;;;0.43;;
29906;SDS011;16776;50.958;10.994;2023-03-14T05:01:49;0.40;;;0.40;;
29906;SDS011;16776;50.958;10.994;2023-03-14T05:04:16;0.40;;;0.40;;
29906;SDS011;16776;50.958;10.994;2023-03-14T05:06:44;2.53;;;0.50;;
29906;SDS011;16776;50.958;10.994;2023-03-14T05:09:11;1.00;;;0.28;;
29906;SDS011;16776;50.958;10.994;2023-03-14T05:11:37;0.20;;;0.20;;
29906;SDS011;16776;50.958;10.994;2023-03-14T05:14:04;0.47;;;0.20;;
29906;SDS011;16776;50.958;10.994;2023-03-14T05:16:31;1.40;;;0.40;;
29906;SDS011;16776;50.958;10.994;2023-03-14T05:18:59;1.50;;;0.30;;
29906;SDS011;16776;50.958;10.994;2023-03-14T05:21:29;0.20;;;0.20;;
29906;SDS011;16776;50.958;10.994;2023-03-14T05:23:57;0.30;;;0.20;;
29906;SDS011;16776;50.958;10.994;2023-03-14T05:26:24;0.52;;;0.28;;
29906;SDS011;16776;50.958;10.994;2023-03-14T05:28:51;1.33;;;0.60;;
29906;SDS011;16776;50.958;10.994;2023-03-14T05:31:17;0.93;;;0.30;;
29906;SDS011;16776;50.958;10.994;2023-03-14T05:33:44;0.43;;;0.35;;
29906;SDS011;16776;50.958;10.994;2023-03-14T05:36:12;0.45;;;0.30;;
29906;SDS011;16776;50.958;10.994;2023-03-14T05:38:38;0.65;;;0.30;;
29906;SDS011;16776;50.958;10.994;2023-03-14T05:41:05;0.80;;;0.32;;
29906;SDS011;16776;50.958;10.994;2023-03-14T05:43:32;0.73;;;0.40;;
29906;SDS011;16776;50.958;10.994;2023-03-14T05:45:59;0.63;;;0.30;;
29906;SDS011;16776;50.958;10.994;2023-03-14T05:48:25;1.42;;;0.32;;
29906;SDS011;16776;50.958;10.994;2023-03-14T05:50:54;2.08;;;0.50;;
29906;SDS011;16776;50.958;10.994;2023-03-14T05:53:25;0.90;;;0.22;;
29906;SDS011;16776;50.958;10.994;2023-03-14T05:55:57;1.08;;;0.30;;
29906;SDS011;16776;50.958;10.994;2023-03-14T05:58:23;1.65;;;0.50;;
29906;SDS011;16776;50.958;10.994;2023-03-14T06:00:50;0.80;;;0.38;;
29906;SDS011;16776;50.958;10.994;2023-03-14T06:03:17;0.30;;;0.30;;
29906;SDS011;16776;50.958;10.994;2023-03-14T06:05:44;0.40;;;0.20;;
29906;SDS011;16776;50.958;10.994;2023-03-14T06:08:10;1.15;;;0.30;;
29906;SDS011;16776;50.958;10.994;2023-03-14T06:10:38;1.92;;;0.20;;
29906;SDS011;16776;50.958;10.994;2023-03-14T06:13:05;1.67;;;0.50;;
29906;SDS011;16776;50.958;10.994;2023-03-14T06:15:33;0.57;;;0.40;;
29906;SDS011;16776;50.958;10.994;2023-03-14T06:18:00;0.90;;;0.38;;
29906;SDS011;16776;50.958;10.994;2023-03-14T06:20:27;1.13;;;0.40;;
29906;SDS011;16776;50.958;10.994;2023-03-14T06:22:56;3.40;;;0.75;;
29906;SDS011;16776;50.958;10.994;2023-03-14T06:25:22;3.17;;;0.60;;
29906;SDS011;16776;50.958;10.994;2023-03-14T06:27:51;0.75;;;0.50;;
29906;SDS011;16776;50.958;10.994;2023-03-14T06:30:18;2.30;;;0.50;;
29906;SDS011;16776;50.958;10.994;2023-03-14T06:32:44;2.08;;;0.70;;
29906;SDS011;16776;50.958;10.994;2023-03-14T06:35:11;2.53;;;0.63;;
29906;SDS011;16776;50.958;10.994;2023-03-14T06:37:37;0.63;;;0.47;;
29906;SDS011;16776;50.958;10.994;2023-03-14T06:40:05;1.13;;;0.30;;
29906;SDS011;16776;50.958;10.994;2023-03-14T06:42:33;0.70;;;0.60;;
29906;SDS011;16776;50.958;10.994;2023-03-14T06:45:01;5.15;;;0.75;;
29906;SDS011;16776;50.958;10.994;2023-03-14T06:47:28;2.15;;;0.38;;
29906;SDS011;16776;50.958;10.994;2023-03-14T06:49:55;2.15;;;0.40;;
29906;SDS011;16776;50.958;10.994;2023-03-14T06:52:23;0.45;;;0.22;;
29906;SDS011;16776;50.958;10.994;2023-03-14T06:54:49;1.55;;;0.30;;
29906;SDS011;16776;50.958;10.994;2023-03-14T06:57:19;0.30;;;0.20;;
29906;SDS011;16776;50.958;10.994;2023-03-14T06:59:46;2.33;;;0.30;;
29906;SDS011;16776;50.958;10.994;2023-03-14T07:02:13;1.75;;;0.63;;
29906;SDS011;16776;50.958;10.994;2023-03-14T07:04:40;1.45;;;0.32;;
29906;SDS011;16776;50.958;10.994;2023-03-14T07:07:07;1.33;;;0.50;;
29906;SDS011;16776;50.958;10.994;2023-03-14T07:09:36;1.13;;;0.40;;
29906;SDS011;16776;50.958;10.994;2023-03-14T07:12:02;0.20;;;0.20;;
29906;SDS011;16776;50.958;10.994;2023-03-14T07:14:29;1.60;;;0.43;;
29906;SDS011;16776;50.958;10.994;2023-03-14T07:16:56;0.50;;;0.38;;
29906;SDS011;16776;50.958;10.994;2023-03-14T07:19:27;1.00;;;0.40;;
29906;SDS011;16776;50.958;10.994;2023-03-14T07:21:57;0.20;;;0.20;;
29906;SDS011;16776;50.958;10.994;2023-03-14T07:24:27;0.55;;;0.40;;
29906;SDS011;16776;50.958;10.994;2023-03-14T07:26:53;0.40;;;0.25;;
29906;SDS011;16776;50.958;10.994;2023-03-14T07:29:23;0.63;;;0.20;;
29906;SDS011;16776;50.958;10.994;2023-03-14T07:31:50;0.10;;;0.10;;
29906;SDS011;16776;50.958;10.994;2023-03-14T07:34:16;0.38;;;0.28;;
29906;SDS011;16776;50.958;10.994;2023-03-14T07:36:47;2.83;;;0.40;;
29906;SDS011;16776;50.958;10.994;2023-03-14T07:39:13;1.65;;;0.40;;
29906;SDS011;16776;50.958;10.994;2023-03-14T07:41:40;0.38;;;0.20;;
29906;SDS011;16776;50.958;10.994;2023-03-14T07:44:12;0.20;;;0.10;;
29906;SDS011;16776;50.958;10.994;2023-03-14T07:46:39;0.20;;;0.20;;
29906;SDS011;16776;50.958;10.994;2023-03-14T07:49:07;0.63;;;0.25;;
29906;SDS011;16776;50.958;10.994;2023-03-14T07:51:34;0.52;;;0.20;;
29906;SDS011;16776;50.958;10.994;2023-03-14T07:54:05;0.10;;;0.10;;
29906;SDS011;16776;50.958;10.994;2023-03-14T07:56:32;1.55;;;0.20;;
29906;SDS011;16776;50.958;10.994;2023-03-14T07:58:59;0.30;;;0.10;;
29906;SDS011;16776;50.958;10.994;2023-03-14T08:01:26;0.50;;;0.30;;
29906;SDS011;16776;50.958;10.994;2023-03-14T08:03:53;0.30;;;0.20;;
29906;SDS011;16776;50.958;10.994;2023-03-14T08:06:19;0.68;;;0.20;;
29906;SDS011;16776;50.958;10.994;2023-03-14T08:08:46;0.50;;;0.20;;
29906;SDS011;16776;50.958;10.994;2023-03-14T08:11:14;0.43;;;0.40;;
29906;SDS011;16776;50.958;10.994;2023-03-14T08:13:41;0.43;;;0.30;;
29906;SDS011;16776;50.958;10.994;2023-03-14T08:16:08;0.45;;;0.20;;
29906;SDS011;16776;50.958;10.994;2023-03-14T08:18:34;0.50;;;0.13;;
29906;SDS011;16776;50.958;10.994;2023-03-14T08:21:01;0.10;;;0.10;;
29906;SDS011;16776;50.958;10.994;2023-03-14T08:23:28;0.35;;;0.10;;
29906;SDS011;16776;50.958;10.994;2023-03-14T08:25:54;0.57;;;0.20;;
29906;SDS011;16776;50.958;10.994;2023-03-14T08:28:24;0.40;;;0.10;;
29906;SDS011;16776;50.958;10.994;2023-03-14T08:30:55;0.30;;;0.13;;
29906;SDS011;16776;50.958;10.994;2023-03-14T08:33:22;0.38;;;0.13;;
29906;SDS011;16776;50.958;10.994;2023-03-14T08:35:51;0.65;;;0.40;;
29906;SDS011;16776;50.958;10.994;2023-03-14T08:38:24;0.63;;;0.20;;
29906;SDS011;16776;50.958;10.994;2023-03-14T08:40:54;0.50;;;0.50;;
29906;SDS011;16776;50.958;10.994;2023-03-14T08:43:26;1.25;;;0.25;;
29906;SDS011;16776;50.958;10.994;2023-03-14T08:45:56;0.90;;;0.10;;
29906;SDS011;16776;50.958;10.994;2023-03-14T08:48:24;2.88;;;0.50;;
29906;SDS011;16776;50.958;10.994;2023-03-14T08:50:54;1.00;;;0.20;;
29906;SDS011;16776;50.958;10.994;2023-03-14T08:53:21;0.20;;;0.10;;
29906;SDS011;16776;50.958;10.994;2023-03-14T08:55:51;0.10;;;0.10;;
29906;SDS011;16776;50.958;10.994;2023-03-14T08:58:18;0.47;;;0.13;;
29906;SDS011;16776;50.958;10.994;2023-03-14T09:00:47;0.43;;;0.10;;
29906;SDS011;16776;50.958;10.994;2023-03-14T09:03:14;1.15;;;0.30;;
29906;SDS011;16776;50.958;10.994;2023-03-14T09:05:41;0.17;;;0.17;;
29906;SDS011;16776;50.958;10.994;2023-03-14T09:08:07;0.52;;;0.20;;
29906;SDS011;16776;50.958;10.994;2023-03-14T09:10:34;0.52;;;0.15;;
29906;SDS011;16776;50.958;10.994;2023-03-14T09:13:00;0.17;;;0.10;;
29906;SDS011;16776;50.958;10.994;2023-03-14T09:15:28;0.10;;;0.10;;
29906;SDS011;16776;50.958;10.994;2023-03-14T09:17:56;1.13;;;0.15;;
29906;SDS011;16776;50.958;10.994;2023-03-14T09:20:23;0.40;;;0.20;;
29906;SDS011;16776;50.958;10.994;2023-03-14T09:22:51;0.32;;;0.10;;
29906;SDS011;16776;50.958;10.994;2023-03-14T09:25:18;0.17;;;0.17;;
29906;SDS011;16776;50.958;10.994;2023-03-14T09:27:44;0.10;;;0.10;;
29906;SDS011;16776;50.958;10.994;2023-03-14T09:30:11;0.70;;;0.20;;
29906;SDS011;16776;50.958;10.994;2023-03-14T09:32:38;0.10;;;0.10;;
29906;SDS011;16776;50.958;10.994;2023-03-14T09:35:06;0.55;;;0.10;;
29906;SDS011;16776;50.958;10.994;2023-03-14T09:37:33;0.10;;;0.10;;
29906;SDS011;16776;50.958;10.994;2023-03-14T09:40:00;0.28;;;0.10;;
29906;SDS011;16776;50.958;10.994;2023-03-14T09:42:32;0.17;;;0.17;;
29906;SDS011;16776;50.958;10.994;2023-03-14T09:45:00;0.10;;;0.10;;
29906;SDS011;16776;50.958;10.994;2023-03-14T09:47:30;0.08;;;0.08;;
29906;SDS011;16776;50.958;10.994;2023-03-14T09:49:59;0.55;;;0.20;;
29906;SDS011;16776;50.958;10.994;2023-03-14T09:52:30;0.08;;;0.03;;
29906;SDS011;16776;50.958;10.994;2023-03-14T09:54:58;0.30;;;0.10;;
29906;SDS011;16776;50.958;10.994;2023-03-14T09:57:36;0.30;;;0.10;;
29906;SDS011;16776;50.958;10.994;2023-03-14T10:00:04;0.32;;;0.10;;
29906;SDS011;16776;50.958;10.994;2023-03-14T10:02:39;0.25;;;0.13;;
29906;SDS011;16776;50.958;10.994;2023-03-14T10:05:13;0.20;;;0.10;;
29906;SDS011;16776;50.958;10.994;2023-03-14T10:07:43;0.00;;;0.00;;
29906;SDS011;16776;50.958;10.994;2023-03-14T10:10:10;0.98;;;0.20;;
29906;SDS011;16776;50.958;10.994;2023-03-14T10:12:39;0.00;;;0.00;;
29906;SDS011;16776;50.958;10.994;2023-03-14T10:15:07;0.15;;;0.15;;
29906;SDS011;16776;50.958;10.994;2023-03-14T10:17:39;0.00;;;0.00;;
29906;SDS011;16776;50.958;10.994;2023-03-14T10:20:26;0.20;;;0.17;;
29906;SDS011;16776;50.958;10.994;2023-03-14T10:23:02;0.10;;;0.10;;
29906;SDS011;16776;50.958;10.994;2023-03-14T10:25:31;0.10;;;0.10;;
29906;SDS011;16776;50.958;10.994;2023-03-14T10:28:02;0.52;;;0.10;;
29906;SDS011;16776;50.958;10.994;2023-03-14T10:30:38;0.05;;;0.00;;
29906;SDS011;16776;50.958;10.994;2023-03-14T10:33:09;0.28;;;0.10;;
29906;SDS011;16776;50.958;10.994;2023-03-14T10:35:37;1.02;;;0.10;;
29906;SDS011;16776;50.958;10.994;2023-03-14T10:38:10;1.02;;;0.55;;
29906;SDS011;16776;50.958;10.994;2023-03-14T10:40:39;0.22;;;0.10;;
29906;SDS011;16776;50.958;10.994;2023-03-14T10:43:12;0.55;;;0.17;;
29906;SDS011;16776;50.958;10.994;2023-03-14T10:45:41;0.20;;;0.10;;
29906;SDS011;16776;50.958;10.994;2023-03-14T10:48:20;0.20;;;0.15;;
29906;SDS011;16776;50.958;10.994;2023-03-14T10:50:57;0.30;;;0.20;;
29906;SDS011;16776;50.958;10.994;2023-03-14T10:53:33;0.28;;;0.10;;
29906;SDS011;16776;50.958;10.994;2023-03-14T10:56:11;1.13;;;0.17;;
29906;SDS011;16776;50.958;10.994;2023-03-14T10:58:41;0.30;;;0.17;;
29906;SDS011;16776;50.958;10.994;2023-03-14T11:01:16;0.10;;;0.10;;
29906;SDS011;16776;50.958;10.994;2023-03-14T11:03:53;0.17;;;0.10;;
29906;SDS011;16776;50.958;10.994;2023-03-14T11:06:28;0.00;;;0.00;;
29906;SDS011;16776;50.958;10.994;2023-03-14T11:09:05;0.75;;;0.57;;
29906;SDS011;16776;50.958;10.994;2023-03-14T11:11:45;0.00;;;0.00;;
29906;SDS011;16776;50.958;10.994;2023-03-14T11:14:15;1.13;;;0.10;;
29906;SDS011;16776;50.958;10.994;2023-03-14T11:16:52;0.10;;;0.10;;
29906;SDS011;16776;50.958;10.994;2023-03-14T11:19:29;0.05;;;0.05;;
29906;SDS011;16776;50.958;10.994;2023-03-14T11:22:05;0.15;;;0.10;;
29906;SDS011;16776;50.958;10.994;2023-03-14T11:24:55;0.10;;;0.10;;
29906;SDS011;16776;50.958;10.994;2023-03-14T11:27:41;0.38;;;0.20;;
29906;SDS011;16776;50.958;10.994;2023-03-14T11:30:17;0.52;;;0.10;;
29906;SDS011;16776;50.958;10.994;2023-03-14T11:32:46;0.10;;;0.10;;
29906;SDS011;16776;50.958;10.994;2023-03-14T11:35:17;0.20;;;0.10;;
29906;SDS011;16776;50.958;10.994;2023-03-14T11:37:52;0.10;;;0.00;;
29906;SDS011;16776;50.958;10.994;2023-03-14T11:40:24;0.45;;;0.08;;
29906;SDS011;16776;50.958;10.994;2023-03-14T11:42:54;0.10;;;0.10;;
29906;SDS011;16776;50.958;10.994;2023-03-14T11:45:33;0.03;;;0.03;;
29906;SDS011;16776;50.958;10.994;2023-03-14T11:48:07;0.08;;;0.08;;
29906;SDS011;16776;50.958;10.994;2023-03-14T11:50:43;0.10;;;0.10;;
29906;SDS011;16776;50.958;10.994;2023-03-14T11:53:13;0.17;;;0.17;;
29906;SDS011;16776;50.958;10.994;2023-03-14T11:55:43;0.20;;;0.10;;
29906;SDS011;16776;50.958;10.994;2023-03-14T11:58:13;0.10;;;0.10;;
29906;SDS011;16776;50.958;10.994;2023-03-14T12:00:44;0.10;;;0.10;;
29906;SDS011;16776;50.958;10.994;2023-03-14T12:03:14;0.00;;;0.00;;
29906;SDS011;16776;50.958;10.994;2023-03-14T12:05:48;0.10;;;0.10;;
29906;SDS011;16776;50.958;10.994;2023-03-14T12:08:28;0.15;;;0.15;;
29906;SDS011;16776;50.958;10.994;2023-03-14T12:13:39;0.00;;;0.00;;
29906;SDS011;16776;50.958;10.994;2023-03-14T12:16:10;0.10;;;0.10;;
29906;SDS011;16776;50.958;10.994;2023-03-14T12:19:04;0.10;;;0.10;;
29906;SDS011;16776;50.958;10.994;2023-03-14T12:21:46;0.00;;;0.00;;
29906;SDS011;16776;50.958;10.994;2023-03-14T12:24:17;0.05;;;0.05;;
29906;SDS011;16776;50.958;10.994;2023-03-14T12:26:51;0.10;;;0.10;;
29906;SDS011;16776;50.958;10.994;2023-03-14T12:34:46;0.00;;;0.00;;
29906;SDS011;16776;50.958;10.994;2023-03-14T12:37:16;0.10;;;0.05;;
29906;SDS011;16776;50.958;10.994;2023-03-14T12:40:04;0.40;;;0.15;;
29906;SDS011;16776;50.958;10.994;2023-03-14T12:42:54;0.22;;;0.10;;
29906;SDS011;16776;50.958;10.994;2023-03-14T12:45:28;0.13;;;0.10;;
29906;SDS011;16776;50.958;10.994;2023-03-14T12:48:01;0.10;;;0.10;;
29906;SDS011;16776;50.958;10.994;2023-03-14T12:50:35;0.10;;;0.10;;
29906;SDS011;16776;50.958;10.994;2023-03-14T12:56:22;0.10;;;0.10;;
29906;SDS011;16776;50.958;10.994;2023-03-14T13:01:59;0.10;;;0.10;;
29906;SDS011;16776;50.958;10.994;2023-03-14T13:04:28;0.10;;;0.10;;
29906;SDS011;16776;50.958;10.994;2023-03-14T13:07:01;0.22;;;0.10;;
29906;SDS011;16776;50.958;10.994;2023-03-14T13:09:34;0.08;;;0.05;;
29906;SDS011;16776;50.958;10.994;2023-03-14T13:12:17;0.47;;;0.30;;
29906;SDS011;16776;50.958;10.994;2023-03-14T13:14:45;0.00;;;0.00;;
29906;SDS011;16776;50.958;10.994;2023-03-14T13:17:22;0.20;;;0.20;;
29906;SDS011;16776;50.958;10.994;2023-03-14T13:19:52;0.10;;;0.10;;
29906;SDS011;16776;50.958;10.994;2023-03-14T13:22:26;0.20;;;0.05;;
29906;SDS011;16776;50.958;10.994;2023-03-14T13:24:59;0.57;;;0.20;;
29906;SDS011;16776;50.958;10.994;2023-03-14T13:27:30;0.13;;;0.10;;
29906;SDS011;16776;50.958;10.994;2023-03-14T13:29:59;0.20;;;0.10;;
29906;SDS011;16776;50.958;10.994;2023-03-14T13:32:33;0.10;;;0.10;;
29906;SDS011;16776;50.958;10.994;2023-03-14T13:34:59;0.10;;;0.10;;
29906;SDS011;16776;50.958;10.994;2023-03-14T13:37:26;0.30;;;0.10;;
29906;SDS011;16776;50.958;10.994;2023-03-14T13:39:54;0.20;;;0.10;;
29906;SDS011;16776;50.958;10.994;2023-03-14T13:42:23;0.05;;;0.05;;
29906;SDS011;16776;50.958;10.994;2023-03-14T13:44:52;0.08;;;0.08;;
29906;SDS011;16776;50.958;10.994;2023-03-14T13:47:20;0.40;;;0.00;;
29906;SDS011;16776;50.958;10.994;2023-03-14T13:49:50;0.05;;;0.05;;
29906;SDS011;16776;50.958;10.994;2023-03-14T13:52:27;0.00;;;0.00;;
29906;SDS011;16776;50.958;10.994;2023-03-14T13:54:59;0.10;;;0.10;;
29906;SDS011;16776;50.958;10.994;2023-03-14T13:57:28;0.00;;;0.00;;
29906;SDS011;16776;50.958;10.994;2023-03-14T14:00:16;0.20;;;0.10;;
29906;SDS011;16776;50.958;10.994;2023-03-14T14:02:44;0.45;;;0.00;;
29906;SDS011;16776;50.958;10.994;2023-03-14T14:05:13;0.30;;;0.00;;
29906;SDS011;16776;50.958;10.994;2023-03-14T14:07:40;0.10;;;0.10;;
29906;SDS011;16776;50.958;10.994;2023-03-14T14:10:10;0.00;;;0.00;;
29906;SDS011;16776;50.958;10.994;2023-03-14T14:12:39;0.47;;;0.10;;
29906;SDS011;16776;50.958;10.994;2023-03-14T14:15:11;0.05;;;0.05;;
29906;SDS011;16776;50.958;10.994;2023-03-14T14:17:42;0.28;;;0.10;;
29906;SDS011;16776;50.958;10.994;2023-03-14T14:20:14;0.93;;;0.10;;
29906;SDS011;16776;50.958;10.994;2023-03-14T14:22:47;1.52;;;0.82;;
29906;SDS011;16776;50.958;10.994;2023-03-14T14:25:15;0.17;;;0.17;;
29906;SDS011;16776;50.958;10.994;2023-03-14T14:27:43;0.08;;;0.08;;
29906;SDS011;16776;50.958;10.994;2023-03-14T14:30:29;1.00;;;0.10;;
29906;SDS011;16776;50.958;10.994;2023-03-14T14:33:18;0.10;;;0.10;;
29906;SDS011;16776;50.958;10.994;2023-03-14T14:35:51;0.00;;;0.00;;
29906;SDS011;16776;50.958;10.994;2023-03-14T14:38:20;0.03;;;0.00;;
29906;SDS011;16776;50.958;10.994;2023-03-14T14:40:48;0.00;;;0.00;;
29906;SDS011;16776;50.958;10.994;2023-03-14T14:43:18;0.00;;;0.00;;
29906;SDS011;16776;50.958;10.994;2023-03-14T14:45:48;0.10;;;0.00;;
29906;SDS011;16776;50.958;10.994;2023-03-14T14:48:18;0.00;;;0.00;;
29906;SDS011;16776;50.958;10.994;2023-03-14T14:50:51;0.28;;;0.20;;
29906;SDS011;16776;50.958;10.994;2023-03-14T14:53:28;0.10;;;0.10;;
29906;SDS011;16776;50.958;10.994;2023-03-14T14:55:57;0.20;;;0.20;;
29906;SDS011;16776;50.958;10.994;2023-03-14T14:58:26;0.10;;;0.10;;
29906;SDS011;16776;50.958;10.994;2023-03-14T15:00:56;0.10;;;0.00;;